sensor_id;sensor_type;location;lat;lon;timestamp;pressure;altitude;pressure_sealevel;temperature;humidity
59493;BME280;45497;43.996;22.876;2023-12-20T00:01:04;101455.03;;;6.70;49.79
59493;BME280;45497;43.996;22.876;2023-12-20T00:03:30;101460.75;;;6.76;49.67
59493;BME280;45497;43.996;22.876;2023-12-20T00:05:55;101454.38;;;6.57;49.94
59493;BME280;45497;43.996;22.876;2023-12-20T00:08:21;101454.63;;;6.54;50.29
59493;BME280;45497;43.996;22.876;2023-12-20T00:10:47;101447.41;;;6.56;50.29
59493;BME280;45497;43.996;22.876;2023-12-20T00:13:12;101448.38;;;6.55;50.24
59493;BME280;45497;43.996;22.876;2023-12-20T00:15:38;101448.19;;;6.47;50.58
59493;BME280;45497;43.996;22.876;2023-12-20T00:18:04;101446.25;;;6.49;50.35
59493;BME280;45497;43.996;22.876;2023-12-20T00:20:30;101443.97;;;6.44;50.49
59493;BME280;45497;43.996;22.876;2023-12-20T00:22:57;101438.09;;;6.52;50.24
59493;BME280;45497;43.996;22.876;2023-12-20T00:25:28;101432.97;;;6.50;50.26
59493;BME280;45497;43.996;22.876;2023-12-20T00:27:54;101438.56;;;6.57;50.39
59493;BME280;45497;43.996;22.876;2023-12-20T00:30:20;101433.53;;;6.54;50.81
59493;BME280;45497;43.996;22.876;2023-12-20T00:32:46;101436.41;;;6.51;50.41
59493;BME280;45497;43.996;22.876;2023-12-20T00:35:15;101423.50;;;6.48;50.30
59493;BME280;45497;43.996;22.876;2023-12-20T00:37:44;101428.63;;;6.49;50.27
59493;BME280;45497;43.996;22.876;2023-12-20T00:40:13;101411.09;;;6.39;50.54
59493;BME280;45497;43.996;22.876;2023-12-20T00:42:43;101422.59;;;6.38;50.56
59493;BME280;45497;43.996;22.876;2023-12-20T00:45:16;101431.84;;;6.21;50.80
59493;BME280;45497;43.996;22.876;2023-12-20T00:47:45;101418.81;;;6.19;50.85
59493;BME280;45497;43.996;22.876;2023-12-20T00:50:11;101423.94;;;6.21;50.92
59493;BME280;45497;43.996;22.876;2023-12-20T00:52:37;101413.09;;;6.14;50.71
59493;BME280;45497;43.996;22.876;2023-12-20T00:55:03;101423.16;;;6.09;50.88
59493;BME280;45497;43.996;22.876;2023-12-20T00:57:29;101415.84;;;6.01;51.02
59493;BME280;45497;43.996;22.876;2023-12-20T00:59:55;101410.97;;;5.85;51.03
59493;BME280;45497;43.996;22.876;2023-12-20T01:02:20;101412.66;;;5.75;51.29
59493;BME280;45497;43.996;22.876;2023-12-20T01:04:46;101410.00;;;5.75;51.33
59493;BME280;45497;43.996;22.876;2023-12-20T01:07:14;101403.19;;;5.72;51.56
59493;BME280;45497;43.996;22.876;2023-12-20T01:09:40;101399.84;;;5.70;51.79
59493;BME280;45497;43.996;22.876;2023-12-20T01:12:05;101397.13;;;5.61;51.45
59493;BME280;45497;43.996;22.876;2023-12-20T01:14:31;101378.97;;;5.35;52.31
59493;BME280;45497;43.996;22.876;2023-12-20T01:16:57;101384.56;;;5.19;52.87
59493;BME280;45497;43.996;22.876;2023-12-20T01:19:22;101391.34;;;4.99;53.14
59493;BME280;45497;43.996;22.876;2023-12-20T01:21:49;101386.22;;;4.97;53.44
59493;BME280;45497;43.996;22.876;2023-12-20T01:24:14;101391.13;;;5.13;52.88
59493;BME280;45497;43.996;22.876;2023-12-20T01:26:40;101382.53;;;5.34;52.09
59493;BME280;45497;43.996;22.876;2023-12-20T01:29:05;101381.94;;;5.42;51.65
59493;BME280;45497;43.996;22.876;2023-12-20T01:31:31;101388.63;;;5.57;51.37
59493;BME280;45497;43.996;22.876;2023-12-20T01:33:57;101378.22;;;5.55;51.06
59493;BME280;45497;43.996;22.876;2023-12-20T01:36:22;101372.72;;;5.59;50.74
59493;BME280;45497;43.996;22.876;2023-12-20T01:38:48;101371.88;;;5.58;51.10
59493;BME280;45497;43.996;22.876;2023-12-20T01:41:13;101363.16;;;5.58;50.68
59493;BME280;45497;43.996;22.876;2023-12-20T01:43:39;101358.28;;;5.53;50.74
59493;BME280;45497;43.996;22.876;2023-12-20T01:46:05;101355.50;;;5.54;50.73
59493;BME280;45497;43.996;22.876;2023-12-20T01:48:31;101354.69;;;5.54;50.48
59493;BME280;45497;43.996;22.876;2023-12-20T01:51:00;101347.88;;;5.51;50.47
59493;BME280;45497;43.996;22.876;2023-12-20T01:53:27;101348.13;;;5.48;50.64
59493;BME280;45497;43.996;22.876;2023-12-20T01:55:54;101343.09;;;5.45;50.32
59493;BME280;45497;43.996;22.876;2023-12-20T01:58:21;101341.06;;;5.38;50.51
59493;BME280;45497;43.996;22.876;2023-12-20T02:00:47;101324.00;;;5.32;50.46
59493;BME280;45497;43.996;22.876;2023-12-20T02:03:13;101327.31;;;5.34;50.64
59493;BME280;45497;43.996;22.876;2023-12-20T02:05:39;101329.34;;;5.30;50.61
59493;BME280;45497;43.996;22.876;2023-12-20T02:08:06;101333.22;;;5.15;50.58
59493;BME280;45497;43.996;22.876;2023-12-20T02:10:32;101321.63;;;5.06;50.94
59493;BME280;45497;43.996;22.876;2023-12-20T02:12:57;101323.03;;;4.99;50.79
59493;BME280;45497;43.996;22.876;2023-12-20T02:15:24;101316.22;;;4.85;51.52
59493;BME280;45497;43.996;22.876;2023-12-20T02:17:50;101320.03;;;4.92;51.32
59493;BME280;45497;43.996;22.876;2023-12-20T02:20:15;101305.59;;;4.98;50.81
59493;BME280;45497;43.996;22.876;2023-12-20T02:22:41;101303.56;;;5.02;50.59
59493;BME280;45497;43.996;22.876;2023-12-20T02:25:07;101300.69;;;5.05;50.78
59493;BME280;45497;43.996;22.876;2023-12-20T02:27:33;101302.63;;;5.03;50.35
59493;BME280;45497;43.996;22.876;2023-12-20T02:29:58;101297.94;;;4.95;50.77
59493;BME280;45497;43.996;22.876;2023-12-20T02:32:25;101305.22;;;4.91;50.79
59493;BME280;45497;43.996;22.876;2023-12-20T02:34:54;101295.78;;;4.89;50.94
59493;BME280;45497;43.996;22.876;2023-12-20T02:37:20;101299.97;;;4.91;51.00
59493;BME280;45497;43.996;22.876;2023-12-20T02:39:46;101282.56;;;4.90;50.61
59493;BME280;45497;43.996;22.876;2023-12-20T02:42:13;101283.59;;;4.88;50.32
59493;BME280;45497;43.996;22.876;2023-12-20T02:44:39;101291.84;;;4.72;51.23
59493;BME280;45497;43.996;22.876;2023-12-20T02:47:04;101289.09;;;4.73;51.02
59493;BME280;45497;43.996;22.876;2023-12-20T02:49:30;101296.50;;;4.68;51.05
59493;BME280;45497;43.996;22.876;2023-12-20T02:51:55;101277.75;;;4.62;51.60
59493;BME280;45497;43.996;22.876;2023-12-20T02:54:21;101280.59;;;4.47;52.16
59493;BME280;45497;43.996;22.876;2023-12-20T02:56:47;101273.53;;;4.36;52.52
59493;BME280;45497;43.996;22.876;2023-12-20T02:59:13;101267.56;;;4.34;52.80
59493;BME280;45497;43.996;22.876;2023-12-20T03:01:45;101269.25;;;4.47;52.66
59493;BME280;45497;43.996;22.876;2023-12-20T03:04:12;101267.69;;;4.55;52.18
59493;BME280;45497;43.996;22.876;2023-12-20T03:06:38;101269.28;;;4.69;51.91
59493;BME280;45497;43.996;22.876;2023-12-20T03:09:03;101255.31;;;4.69;51.84
59493;BME280;45497;43.996;22.876;2023-12-20T03:11:29;101256.28;;;4.79;51.61
59493;BME280;45497;43.996;22.876;2023-12-20T03:13:56;101259.13;;;4.87;51.09
59493;BME280;45497;43.996;22.876;2023-12-20T03:16:21;101244.09;;;4.78;51.20
59493;BME280;45497;43.996;22.876;2023-12-20T03:18:47;101255.31;;;4.91;51.31
59493;BME280;45497;43.996;22.876;2023-12-20T03:21:13;101247.56;;;4.90;50.73
59493;BME280;45497;43.996;22.876;2023-12-20T03:23:39;101262.72;;;4.97;51.11
59493;BME280;45497;43.996;22.876;2023-12-20T03:26:08;101257.47;;;4.97;50.78
59493;BME280;45497;43.996;22.876;2023-12-20T03:28:34;101260.56;;;4.91;50.77
59493;BME280;45497;43.996;22.876;2023-12-20T03:30:59;101258.91;;;4.90;51.04
59493;BME280;45497;43.996;22.876;2023-12-20T03:33:25;101245.28;;;4.85;51.20
59493;BME280;45497;43.996;22.876;2023-12-20T03:35:51;101234.06;;;4.83;51.09
59493;BME280;45497;43.996;22.876;2023-12-20T03:38:17;101235.59;;;4.86;51.01
59493;BME280;45497;43.996;22.876;2023-12-20T03:40:42;101239.53;;;4.91;50.93
59493;BME280;45497;43.996;22.876;2023-12-20T03:43:08;101240.84;;;4.86;51.00
59493;BME280;45497;43.996;22.876;2023-12-20T03:45:34;101222.59;;;4.84;51.05
59493;BME280;45497;43.996;22.876;2023-12-20T03:47:59;101223.34;;;4.86;51.03
59493;BME280;45497;43.996;22.876;2023-12-20T03:50:26;101218.69;;;4.90;50.95
59493;BME280;45497;43.996;22.876;2023-12-20T03:52:52;101223.66;;;4.93;50.71
59493;BME280;45497;43.996;22.876;2023-12-20T03:55:18;101217.34;;;4.95;50.55
59493;BME280;45497;43.996;22.876;2023-12-20T03:57:44;101214.59;;;4.97;50.48
59493;BME280;45497;43.996;22.876;2023-12-20T04:00:13;101228.94;;;5.04;50.29
59493;BME280;45497;43.996;22.876;2023-12-20T04:02:39;101215.31;;;4.99;50.31
59493;BME280;45497;43.996;22.876;2023-12-20T04:05:06;101221.88;;;5.05;50.09
59493;BME280;45497;43.996;22.876;2023-12-20T04:07:32;101219.38;;;5.03;50.59
59493;BME280;45497;43.996;22.876;2023-12-20T04:09:58;101208.25;;;5.00;50.28
59493;BME280;45497;43.996;22.876;2023-12-20T04:12:24;101213.88;;;4.95;50.06
59493;BME280;45497;43.996;22.876;2023-12-20T04:14:50;101210.66;;;4.80;50.25
59493;BME280;45497;43.996;22.876;2023-12-20T04:17:16;101215.22;;;4.67;50.93
59493;BME280;45497;43.996;22.876;2023-12-20T04:19:45;101211.50;;;4.47;51.34
59493;BME280;45497;43.996;22.876;2023-12-20T04:22:10;101221.84;;;4.37;51.58
59493;BME280;45497;43.996;22.876;2023-12-20T04:24:36;101206.22;;;4.35;51.86
59493;BME280;45497;43.996;22.876;2023-12-20T04:27:02;101209.72;;;4.47;51.64
59493;BME280;45497;43.996;22.876;2023-12-20T04:29:28;101197.19;;;4.51;51.20
59493;BME280;45497;43.996;22.876;2023-12-20T04:31:54;101202.31;;;4.52;51.48
59493;BME280;45497;43.996;22.876;2023-12-20T04:34:26;101201.00;;;4.47;51.31
59493;BME280;45497;43.996;22.876;2023-12-20T04:36:58;101207.44;;;4.54;50.99
59493;BME280;45497;43.996;22.876;2023-12-20T04:39:27;101215.44;;;4.64;51.18
59493;BME280;45497;43.996;22.876;2023-12-20T04:41:59;101202.91;;;4.56;50.65
59493;BME280;45497;43.996;22.876;2023-12-20T04:44:26;101199.69;;;4.52;51.00
59493;BME280;45497;43.996;22.876;2023-12-20T04:46:54;101197.41;;;4.48;51.44
59493;BME280;45497;43.996;22.876;2023-12-20T04:49:22;101195.38;;;4.51;51.28
59493;BME280;45497;43.996;22.876;2023-12-20T04:51:50;101202.19;;;4.65;50.96
59493;BME280;45497;43.996;22.876;2023-12-20T04:54:54;101200.50;;;4.64;50.88
59493;BME280;45497;43.996;22.876;2023-12-20T04:57:31;101186.19;;;4.57;50.92
59493;BME280;45497;43.996;22.876;2023-12-20T04:59:58;101191.81;;;4.64;51.35
59493;BME280;45497;43.996;22.876;2023-12-20T05:02:24;101185.72;;;4.63;51.02
59493;BME280;45497;43.996;22.876;2023-12-20T05:04:50;101189.66;;;4.69;50.74
59493;BME280;45497;43.996;22.876;2023-12-20T05:07:16;101193.72;;;4.62;50.94
59493;BME280;45497;43.996;22.876;2023-12-20T05:09:43;101201.47;;;4.63;51.07
59493;BME280;45497;43.996;22.876;2023-12-20T05:12:09;101201.59;;;4.62;50.93
59493;BME280;45497;43.996;22.876;2023-12-20T05:14:35;101188.00;;;4.56;51.05
59493;BME280;45497;43.996;22.876;2023-12-20T05:17:01;101186.69;;;4.51;51.41
59493;BME280;45497;43.996;22.876;2023-12-20T05:19:30;101183.09;;;4.40;51.52
59493;BME280;45497;43.996;22.876;2023-12-20T05:21:56;101177.94;;;4.39;51.86
59493;BME280;45497;43.996;22.876;2023-12-20T05:24:22;101171.63;;;4.30;51.69
59493;BME280;45497;43.996;22.876;2023-12-20T05:26:47;101169.84;;;4.31;51.75
59493;BME280;45497;43.996;22.876;2023-12-20T05:29:13;101165.75;;;4.15;52.48
59493;BME280;45497;43.996;22.876;2023-12-20T05:31:40;101168.97;;;4.08;52.60
59493;BME280;45497;43.996;22.876;2023-12-20T05:34:06;101167.50;;;3.92;53.34
59493;BME280;45497;43.996;22.876;2023-12-20T05:36:32;101167.47;;;3.81;53.61
59493;BME280;45497;43.996;22.876;2023-12-20T05:39:00;101158.28;;;3.75;54.09
59493;BME280;45497;43.996;22.876;2023-12-20T05:41:26;101165.44;;;3.73;54.25
59493;BME280;45497;43.996;22.876;2023-12-20T05:43:51;101164.66;;;3.95;53.86
59493;BME280;45497;43.996;22.876;2023-12-20T05:46:17;101159.09;;;4.11;53.26
59493;BME280;45497;43.996;22.876;2023-12-20T05:48:43;101146.50;;;3.92;53.32
59493;BME280;45497;43.996;22.876;2023-12-20T05:51:11;101147.97;;;3.96;53.54
59493;BME280;45497;43.996;22.876;2023-12-20T05:53:38;101142.63;;;4.09;53.29
59493;BME280;45497;43.996;22.876;2023-12-20T05:56:07;101143.72;;;4.18;53.20
59493;BME280;45497;43.996;22.876;2023-12-20T05:58:33;101156.34;;;4.24;52.75
59493;BME280;45497;43.996;22.876;2023-12-20T06:01:29;101133.69;;;4.23;52.88
59493;BME280;45497;43.996;22.876;2023-12-20T06:10:57;101138.47;;;4.40;52.85
59493;BME280;45497;43.996;22.876;2023-12-20T06:13:23;101135.59;;;4.44;52.57
59493;BME280;45497;43.996;22.876;2023-12-20T06:15:50;101124.28;;;4.43;52.73
59493;BME280;45497;43.996;22.876;2023-12-20T06:18:16;101132.88;;;4.45;52.39
59493;BME280;45497;43.996;22.876;2023-12-20T06:20:42;101134.88;;;4.53;52.63
59493;BME280;45497;43.996;22.876;2023-12-20T06:23:14;101139.19;;;4.54;52.90
59493;BME280;45497;43.996;22.876;2023-12-20T06:28:14;101134.38;;;4.59;53.09
59493;BME280;45497;43.996;22.876;2023-12-20T06:30:41;101134.16;;;4.51;53.52
59493;BME280;45497;43.996;22.876;2023-12-20T06:33:10;101130.34;;;4.55;53.29
59493;BME280;45497;43.996;22.876;2023-12-20T06:35:36;101142.16;;;4.60;53.03
59493;BME280;45497;43.996;22.876;2023-12-20T06:38:02;101135.25;;;4.59;53.12
59493;BME280;45497;43.996;22.876;2023-12-20T06:40:29;101142.03;;;4.62;53.19
59493;BME280;45497;43.996;22.876;2023-12-20T06:43:00;101142.63;;;4.66;53.59
59493;BME280;45497;43.996;22.876;2023-12-20T06:45:26;101138.56;;;4.73;53.52
59493;BME280;45497;43.996;22.876;2023-12-20T06:47:52;101137.72;;;4.84;52.94
59493;BME280;45497;43.996;22.876;2023-12-20T06:50:17;101139.00;;;4.89;52.74
59493;BME280;45497;43.996;22.876;2023-12-20T06:52:43;101138.88;;;4.91;52.89
59493;BME280;45497;43.996;22.876;2023-12-20T06:55:09;101129.25;;;4.80;53.09
59493;BME280;45497;43.996;22.876;2023-12-20T06:57:34;101132.94;;;4.66;53.59
59493;BME280;45497;43.996;22.876;2023-12-20T07:00:02;101133.34;;;4.62;53.53
59493;BME280;45497;43.996;22.876;2023-12-20T07:02:28;101129.97;;;4.71;53.71
59493;BME280;45497;43.996;22.876;2023-12-20T07:04:55;101132.69;;;4.81;53.38
59493;BME280;45497;43.996;22.876;2023-12-20T07:07:31;101128.88;;;4.73;53.70
59493;BME280;45497;43.996;22.876;2023-12-20T07:09:58;101122.13;;;4.59;53.86
59493;BME280;45497;43.996;22.876;2023-12-20T07:12:23;101120.69;;;4.67;53.87
59493;BME280;45497;43.996;22.876;2023-12-20T07:14:49;101117.91;;;4.79;53.69
59493;BME280;45497;43.996;22.876;2023-12-20T07:17:15;101113.38;;;4.82;53.59
59493;BME280;45497;43.996;22.876;2023-12-20T07:19:42;101102.63;;;4.85;54.00
59493;BME280;45497;43.996;22.876;2023-12-20T07:22:08;101105.44;;;5.04;53.30
59493;BME280;45497;43.996;22.876;2023-12-20T07:24:34;101096.69;;;5.04;53.22
59493;BME280;45497;43.996;22.876;2023-12-20T07:27:00;101093.06;;;4.84;54.05
59493;BME280;45497;43.996;22.876;2023-12-20T07:29:26;101109.66;;;4.84;54.57
59493;BME280;45497;43.996;22.876;2023-12-20T07:31:53;101101.53;;;4.87;54.66
59493;BME280;45497;43.996;22.876;2023-12-20T07:34:22;101106.16;;;5.06;54.24
59493;BME280;45497;43.996;22.876;2023-12-20T07:36:49;101099.56;;;5.33;54.28
59493;BME280;45497;43.996;22.876;2023-12-20T07:39:15;101090.44;;;5.48;53.35
59493;BME280;45497;43.996;22.876;2023-12-20T07:41:43;101095.69;;;5.69;53.37
59493;BME280;45497;43.996;22.876;2023-12-20T07:44:09;101086.00;;;5.70;53.13
59493;BME280;45497;43.996;22.876;2023-12-20T07:46:35;101088.84;;;5.78;53.04
59493;BME280;45497;43.996;22.876;2023-12-20T07:49:05;101088.19;;;5.86;52.96
59493;BME280;45497;43.996;22.876;2023-12-20T07:51:31;101083.84;;;5.96;53.21
59493;BME280;45497;43.996;22.876;2023-12-20T07:54:04;101080.88;;;6.10;52.75
59493;BME280;45497;43.996;22.876;2023-12-20T07:56:30;101073.53;;;6.14;52.86
59493;BME280;45497;43.996;22.876;2023-12-20T07:58:55;101075.44;;;6.12;52.98
59493;BME280;45497;43.996;22.876;2023-12-20T08:01:21;101076.75;;;6.18;53.05
59493;BME280;45497;43.996;22.876;2023-12-20T08:03:48;101072.59;;;6.25;52.90
59493;BME280;45497;43.996;22.876;2023-12-20T08:06:14;101084.44;;;6.40;52.87
59493;BME280;45497;43.996;22.876;2023-12-20T08:08:42;101079.34;;;6.58;52.80
59493;BME280;45497;43.996;22.876;2023-12-20T08:11:10;101072.56;;;6.75;52.17
59493;BME280;45497;43.996;22.876;2023-12-20T08:13:37;101079.41;;;6.87;52.38
59493;BME280;45497;43.996;22.876;2023-12-20T08:16:03;101073.72;;;6.92;52.13
59493;BME280;45497;43.996;22.876;2023-12-20T08:18:29;101068.75;;;6.99;52.15
59493;BME280;45497;43.996;22.876;2023-12-20T08:20:58;101068.44;;;7.02;52.27
59493;BME280;45497;43.996;22.876;2023-12-20T08:23:24;101061.22;;;7.04;52.24
59493;BME280;45497;43.996;22.876;2023-12-20T08:25:49;101038.22;;;7.06;52.32
59493;BME280;45497;43.996;22.876;2023-12-20T08:28:15;101033.75;;;7.16;52.24
59493;BME280;45497;43.996;22.876;2023-12-20T08:30:41;101028.06;;;7.31;52.23
59493;BME280;45497;43.996;22.876;2023-12-20T08:33:07;101026.81;;;7.44;51.89
59493;BME280;45497;43.996;22.876;2023-12-20T08:35:41;101025.94;;;7.54;51.87
59493;BME280;45497;43.996;22.876;2023-12-20T08:38:07;101030.13;;;7.56;51.70
59493;BME280;45497;43.996;22.876;2023-12-20T08:40:33;101016.94;;;7.56;52.08
59493;BME280;45497;43.996;22.876;2023-12-20T08:43:00;101018.44;;;7.59;51.54
59493;BME280;45497;43.996;22.876;2023-12-20T08:45:25;101013.56;;;7.64;52.16
59493;BME280;45497;43.996;22.876;2023-12-20T08:47:53;101008.00;;;7.67;51.62
59493;BME280;45497;43.996;22.876;2023-12-20T08:50:19;101006.59;;;7.73;51.61
59493;BME280;45497;43.996;22.876;2023-12-20T08:52:45;101003.41;;;7.69;51.78
59493;BME280;45497;43.996;22.876;2023-12-20T08:55:10;100994.38;;;7.72;52.17
59493;BME280;45497;43.996;22.876;2023-12-20T08:57:36;100997.81;;;7.82;52.02
59493;BME280;45497;43.996;22.876;2023-12-20T09:00:02;100994.91;;;7.85;51.76
59493;BME280;45497;43.996;22.876;2023-12-20T09:02:28;100999.91;;;7.78;51.98
59493;BME280;45497;43.996;22.876;2023-12-20T09:04:54;100990.09;;;7.71;52.04
59493;BME280;45497;43.996;22.876;2023-12-20T09:07:24;100997.13;;;7.80;51.70
59493;BME280;45497;43.996;22.876;2023-12-20T09:09:51;100991.19;;;7.78;52.02
59493;BME280;45497;43.996;22.876;2023-12-20T09:12:20;100977.56;;;7.73;52.02
59493;BME280;45497;43.996;22.876;2023-12-20T09:14:46;100983.41;;;7.76;52.04
59493;BME280;45497;43.996;22.876;2023-12-20T09:17:13;100968.00;;;7.72;51.91
59493;BME280;45497;43.996;22.876;2023-12-20T09:19:38;100959.53;;;7.68;52.30
59493;BME280;45497;43.996;22.876;2023-12-20T09:22:05;100952.84;;;7.74;52.26
59493;BME280;45497;43.996;22.876;2023-12-20T09:24:31;100945.84;;;7.82;52.18
59493;BME280;45497;43.996;22.876;2023-12-20T09:26:57;100945.78;;;7.92;52.21
59493;BME280;45497;43.996;22.876;2023-12-20T09:29:29;100939.56;;;7.93;52.28
59493;BME280;45497;43.996;22.876;2023-12-20T09:31:58;100943.41;;;7.99;52.32
59493;BME280;45497;43.996;22.876;2023-12-20T09:34:24;100929.38;;;7.98;52.52
59493;BME280;45497;43.996;22.876;2023-12-20T09:36:51;100929.25;;;8.00;52.67
59493;BME280;45497;43.996;22.876;2023-12-20T09:39:18;100928.88;;;8.13;52.66
59493;BME280;45497;43.996;22.876;2023-12-20T09:42:06;100930.63;;;8.22;52.38
59493;BME280;45497;43.996;22.876;2023-12-20T09:44:32;100922.09;;;8.28;52.23
59493;BME280;45497;43.996;22.876;2023-12-20T09:47:02;100928.63;;;8.34;52.59
59493;BME280;45497;43.996;22.876;2023-12-20T09:49:30;100912.16;;;8.40;52.23
59493;BME280;45497;43.996;22.876;2023-12-20T09:51:56;100914.44;;;8.53;52.61
59493;BME280;45497;43.996;22.876;2023-12-20T09:54:23;100903.63;;;8.64;52.07
59493;BME280;45497;43.996;22.876;2023-12-20T09:56:49;100896.94;;;8.70;52.13
59493;BME280;45497;43.996;22.876;2023-12-20T09:59:16;100897.28;;;8.75;52.03
59493;BME280;45497;43.996;22.876;2023-12-20T10:01:43;100891.09;;;8.84;51.69
59493;BME280;45497;43.996;22.876;2023-12-20T10:04:10;100887.97;;;8.89;51.72
59493;BME280;45497;43.996;22.876;2023-12-20T10:06:43;100876.06;;;8.85;52.19
59493;BME280;45497;43.996;22.876;2023-12-20T10:09:10;100872.09;;;8.89;52.16
59493;BME280;45497;43.996;22.876;2023-12-20T10:11:37;100869.69;;;8.95;51.73
59493;BME280;45497;43.996;22.876;2023-12-20T10:14:04;100865.59;;;9.01;51.91
59493;BME280;45497;43.996;22.876;2023-12-20T10:16:30;100857.88;;;9.08;51.71
59493;BME280;45497;43.996;22.876;2023-12-20T10:18:56;100875.88;;;9.12;51.96
59493;BME280;45497;43.996;22.876;2023-12-20T10:21:22;100856.63;;;9.20;51.15
59493;BME280;45497;43.996;22.876;2023-12-20T10:23:49;100861.78;;;9.30;51.07
59493;BME280;45497;43.996;22.876;2023-12-20T10:26:23;100852.69;;;9.32;51.51
59493;BME280;45497;43.996;22.876;2023-12-20T10:28:59;100842.75;;;9.34;50.67
59493;BME280;45497;43.996;22.876;2023-12-20T10:31:34;100839.16;;;9.35;50.95
59493;BME280;45497;43.996;22.876;2023-12-20T10:34:02;100834.72;;;9.52;50.56
59493;BME280;45497;43.996;22.876;2023-12-20T10:36:32;100826.47;;;9.47;50.24
59493;BME280;45497;43.996;22.876;2023-12-20T10:38:59;100830.31;;;9.61;50.13
59493;BME280;45497;43.996;22.876;2023-12-20T10:41:32;100827.03;;;9.75;50.12
59493;BME280;45497;43.996;22.876;2023-12-20T10:44:03;100814.47;;;9.69;49.98
59493;BME280;45497;43.996;22.876;2023-12-20T10:46:30;100823.56;;;9.75;50.25
59493;BME280;45497;43.996;22.876;2023-12-20T10:48:58;100823.25;;;9.78;50.45
59493;BME280;45497;43.996;22.876;2023-12-20T10:51:24;100806.19;;;9.72;49.97
59493;BME280;45497;43.996;22.876;2023-12-20T10:53:55;100796.28;;;9.74;50.43
59493;BME280;45497;43.996;22.876;2023-12-20T10:56:22;100787.31;;;9.75;50.13
59493;BME280;45497;43.996;22.876;2023-12-20T10:58:52;100781.75;;;9.87;50.01
59493;BME280;45497;43.996;22.876;2023-12-20T11:01:18;100783.03;;;9.83;49.94
59493;BME280;45497;43.996;22.876;2023-12-20T11:04:06;100787.31;;;9.75;50.20
59493;BME280;45497;43.996;22.876;2023-12-20T11:06:54;100787.34;;;9.84;50.13
59493;BME280;45497;43.996;22.876;2023-12-20T11:09:40;100787.00;;;9.79;49.81
59493;BME280;45497;43.996;22.876;2023-12-20T11:12:29;100775.44;;;9.80;49.75
59493;BME280;45497;43.996;22.876;2023-12-20T11:14:58;100774.44;;;9.89;49.51
59493;BME280;45497;43.996;22.876;2023-12-20T11:17:31;100780.25;;;9.92;49.24
59493;BME280;45497;43.996;22.876;2023-12-20T11:22:29;100768.81;;;9.92;48.93
59493;BME280;45497;43.996;22.876;2023-12-20T11:25:19;100756.91;;;9.88;48.99
59493;BME280;45497;43.996;22.876;2023-12-20T11:27:47;100753.63;;;9.94;48.77
59493;BME280;45497;43.996;22.876;2023-12-20T11:30:41;100749.31;;;10.01;49.28
59493;BME280;45497;43.996;22.876;2023-12-20T11:33:09;100747.47;;;10.02;48.84
59493;BME280;45497;43.996;22.876;2023-12-20T11:35:35;100752.44;;;10.13;48.83
59493;BME280;45497;43.996;22.876;2023-12-20T11:38:02;100738.03;;;10.24;49.18
59493;BME280;45497;43.996;22.876;2023-12-20T11:40:27;100720.66;;;10.21;48.78
59493;BME280;45497;43.996;22.876;2023-12-20T11:42:55;100726.13;;;10.20;48.90
59493;BME280;45497;43.996;22.876;2023-12-20T11:45:24;100721.97;;;10.17;48.77
59493;BME280;45497;43.996;22.876;2023-12-20T11:47:52;100722.66;;;10.36;48.81
59493;BME280;45497;43.996;22.876;2023-12-20T11:50:22;100719.31;;;10.50;48.27
59493;BME280;45497;43.996;22.876;2023-12-20T11:53:08;100704.38;;;10.57;48.53
59493;BME280;45497;43.996;22.876;2023-12-20T11:55:40;100710.66;;;10.64;48.34
59493;BME280;45497;43.996;22.876;2023-12-20T11:58:07;100706.69;;;10.60;48.23
59493;BME280;45497;43.996;22.876;2023-12-20T12:00:44;100709.00;;;10.55;48.69
59493;BME280;45497;43.996;22.876;2023-12-20T12:03:22;100694.13;;;10.54;48.53
59493;BME280;45497;43.996;22.876;2023-12-20T12:05:49;100685.13;;;10.63;48.40
59493;BME280;45497;43.996;22.876;2023-12-20T12:08:17;100680.81;;;10.62;48.04
59493;BME280;45497;43.996;22.876;2023-12-20T12:10:44;100670.75;;;10.58;48.38
59493;BME280;45497;43.996;22.876;2023-12-20T12:13:10;100669.78;;;10.50;48.93
59493;BME280;45497;43.996;22.876;2023-12-20T12:15:37;100676.06;;;10.58;48.64
59493;BME280;45497;43.996;22.876;2023-12-20T12:18:04;100676.38;;;10.55;48.92
59493;BME280;45497;43.996;22.876;2023-12-20T12:20:32;100692.78;;;10.58;48.43
59493;BME280;45497;43.996;22.876;2023-12-20T12:23:01;100686.16;;;10.54;48.72
59493;BME280;45497;43.996;22.876;2023-12-20T12:25:32;100676.91;;;10.42;48.79
59493;BME280;45497;43.996;22.876;2023-12-20T12:27:58;100661.03;;;10.42;49.07
59493;BME280;45497;43.996;22.876;2023-12-20T12:30:25;100666.16;;;10.51;48.76
59493;BME280;45497;43.996;22.876;2023-12-20T12:32:52;100652.03;;;10.59;48.39
59493;BME280;45497;43.996;22.876;2023-12-20T12:35:19;100653.19;;;10.57;48.32
59493;BME280;45497;43.996;22.876;2023-12-20T12:37:45;100659.94;;;10.67;48.34
59493;BME280;45497;43.996;22.876;2023-12-20T12:40:15;100644.41;;;10.56;48.40
59493;BME280;45497;43.996;22.876;2023-12-20T12:42:42;100653.34;;;10.55;48.33
59493;BME280;45497;43.996;22.876;2023-12-20T12:45:09;100649.06;;;10.54;47.90
59493;BME280;45497;43.996;22.876;2023-12-20T12:47:39;100657.19;;;10.52;48.04
59493;BME280;45497;43.996;22.876;2023-12-20T12:50:05;100643.09;;;10.52;48.25
59493;BME280;45497;43.996;22.876;2023-12-20T12:52:31;100651.50;;;10.64;48.28
59493;BME280;45497;43.996;22.876;2023-12-20T12:54:57;100640.38;;;10.68;47.89
59493;BME280;45497;43.996;22.876;2023-12-20T12:57:23;100627.53;;;10.57;48.08
59493;BME280;45497;43.996;22.876;2023-12-20T12:59:49;100625.22;;;10.54;48.55
59493;BME280;45497;43.996;22.876;2023-12-20T13:02:17;100636.13;;;10.51;48.59